createdAt,value
2019-05-03T00:02:23.285Z,13.42
2019-05-03T00:05:02.291Z,13.49
2019-05-03T00:07:32.722Z,13.38
2019-05-03T00:10:03.701Z,13.35
2019-05-03T00:12:33.960Z,13.29
2019-05-03T00:15:14.583Z,13.35
2019-05-03T00:17:44.725Z,12.75
2019-05-03T00:20:15.445Z,13.32
2019-05-03T00:22:45.657Z,13.35
2019-05-03T00:25:16.407Z,13.41
2019-05-03T00:27:46.527Z,13.34
2019-05-03T00:30:16.638Z,13.29
2019-05-03T00:32:46.769Z,13.31
2019-05-03T00:35:22.575Z,13.37
2019-05-03T00:37:54.742Z,13.30
2019-05-03T00:40:29.444Z,13.24
2019-05-03T00:43:02.303Z,13.11
2019-05-03T00:45:34.210Z,13.15
2019-05-03T00:48:05.789Z,13.18
2019-05-03T00:50:37.149Z,13.27
2019-05-03T00:53:11.715Z,13.13
2019-05-03T00:55:42.335Z,13.04
2019-05-03T00:58:13.009Z,13.08
2019-05-03T01:00:45.869Z,12.92
2019-05-03T01:03:18.406Z,12.88
2019-05-03T01:05:49.883Z,12.91
2019-05-03T01:08:22.458Z,12.90
2019-05-03T01:10:53.825Z,12.79
2019-05-03T01:13:24.244Z,12.77
2019-05-03T01:16:16.476Z,12.81
2019-05-03T01:18:46.872Z,12.84
2019-05-03T01:21:17.594Z,12.81
2019-05-03T01:23:48.040Z,12.80
2019-05-03T01:26:18.611Z,12.83
2019-05-03T01:28:52.114Z,12.80
2019-05-03T01:31:23.129Z,12.82
2019-05-03T01:33:53.587Z,12.71
2019-05-03T01:36:24.388Z,12.60
2019-05-03T01:38:55.161Z,12.66
2019-05-03T01:41:26.511Z,12.56
2019-05-03T01:43:57.245Z,12.40
2019-05-03T01:46:28.463Z,12.35
2019-05-03T01:49:18.310Z,12.39
2019-05-03T01:52:25.962Z,12.30
2019-05-03T01:54:56.157Z,12.31
2019-05-03T01:57:26.313Z,12.31
2019-05-03T01:59:56.641Z,12.25
2019-05-03T02:02:46.219Z,12.18
2019-05-03T02:05:39.757Z,12.14
2019-05-03T02:08:16.379Z,12.16
2019-05-03T02:10:52.407Z,12.20
2019-05-03T02:13:23.003Z,12.14
2019-05-03T02:15:53.362Z,12.16
2019-05-03T02:18:24.043Z,12.18
2019-05-03T02:20:57.577Z,12.25
2019-05-03T02:23:28.689Z,12.25
2019-05-03T02:25:59.357Z,12.15
2019-05-03T02:28:32.705Z,12.13
2019-05-03T02:31:03.758Z,12.14
2019-05-03T02:33:34.122Z,12.07
2019-05-03T02:36:04.226Z,11.95
2019-05-03T02:38:34.369Z,11.96
2019-05-03T02:41:05.110Z,11.77
2019-05-03T02:43:45.008Z,11.52
2019-05-03T02:46:36.412Z,11.29
2019-05-03T02:49:26.478Z,11.20
2019-05-03T02:51:56.479Z,10.95
2019-05-03T02:54:27.312Z,11.02
2019-05-03T02:56:58.589Z,10.93
2019-05-03T02:59:31.578Z,10.95
2019-05-03T03:02:01.814Z,10.99
2019-05-03T03:04:35.127Z,10.82
2019-05-03T03:07:06.475Z,10.91
2019-05-03T03:09:37.152Z,10.91
2019-05-03T03:12:10.432Z,11.00
2019-05-03T03:14:45.512Z,10.74
2019-05-03T03:17:18.003Z,10.84
2019-05-03T03:19:49.904Z,10.66
2019-05-03T03:22:21.716Z,9.97
2019-05-03T03:24:55.959Z,10.57
2019-05-03T03:27:27.559Z,10.57
2019-05-03T03:30:29.077Z,10.11
2019-05-03T03:32:59.462Z,10.56
2019-05-03T03:35:30.744Z,10.55
2019-05-03T03:38:01.590Z,10.55
2019-05-03T03:40:31.943Z,10.45
2019-05-03T03:43:06.893Z,10.46
2019-05-03T03:45:39.632Z,10.38
2019-05-03T03:48:11.956Z,10.42
2019-05-03T03:50:47.502Z,10.24
2019-05-03T03:53:21.021Z,10.34
2019-05-03T03:55:56.227Z,10.34
2019-05-03T03:58:27.099Z,10.22
2019-05-03T04:00:59.056Z,10.15
2019-05-03T04:03:30.879Z,9.77
2019-05-03T04:06:01.498Z,10.02
2019-05-03T04:08:31.755Z,10.19
2019-05-03T04:11:02.469Z,10.26
2019-05-03T04:13:32.673Z,10.17
2019-05-03T04:16:36.236Z,10.25
2019-05-03T04:19:19.561Z,10.31
2019-05-03T04:21:51.047Z,10.32
2019-05-03T04:24:30.862Z,10.42
2019-05-03T04:27:17.977Z,10.45
2019-05-03T04:29:40.738Z,10.37
2019-05-03T04:32:12.048Z,10.22
2019-05-03T04:34:45.043Z,10.08
2019-05-03T04:37:16.317Z,10.12
2019-05-03T04:39:46.624Z,10.11
2019-05-03T04:42:16.971Z,10.14
2019-05-03T04:44:47.104Z,10.03
2019-05-03T04:47:17.453Z,10.19
2019-05-03T04:49:47.353Z,10.30
2019-05-03T04:52:20.571Z,10.42
2019-05-03T04:54:58.700Z,10.40
2019-05-03T04:57:39.740Z,10.34
2019-05-03T05:00:06.059Z,10.42
2019-05-03T05:02:35.676Z,9.93
2019-05-03T05:05:06.407Z,10.52
2019-05-03T05:07:36.558Z,10.55
2019-05-03T05:10:07.278Z,10.46
2019-05-03T05:12:37.886Z,10.56
2019-05-03T05:15:08.005Z,10.47
2019-05-03T05:17:56.120Z,10.42
2019-05-03T05:20:36.203Z,10.44
2019-05-03T05:23:06.538Z,10.33
2019-05-03T05:25:44.493Z,10.25
2019-05-03T05:28:36.100Z,10.32
2019-05-03T05:31:06.505Z,10.39
2019-05-03T05:33:36.673Z,10.40
2019-05-03T05:36:07.150Z,10.32
2019-05-03T05:38:37.184Z,10.15
2019-05-03T05:41:07.259Z,9.69
2019-05-03T05:43:37.303Z,10.35
2019-05-03T05:46:07.432Z,10.32
2019-05-03T05:48:46.024Z,10.35
2019-05-03T05:51:16.786Z,10.36
2019-05-03T05:53:47.111Z,10.54
2019-05-03T05:56:48.199Z,10.01
2019-05-03T05:59:26.009Z,10.76
2019-05-03T06:01:59.606Z,10.73
2019-05-03T06:04:29.683Z,10.52
2019-05-03T06:07:27.640Z,10.41
2019-05-03T06:10:14.702Z,10.40
2019-05-03T06:13:05.315Z,10.38
2019-05-03T06:15:46.636Z,10.50
2019-05-03T06:18:25.048Z,10.49
2019-05-03T06:21:24.951Z,10.44
2019-05-03T06:24:04.514Z,10.20
2019-05-03T06:26:37.727Z,10.37
2019-05-03T06:29:10.808Z,10.46
2019-05-03T06:31:55.573Z,10.41
2019-05-03T06:34:29.026Z,10.33
2019-05-03T06:37:04.554Z,10.14
2019-05-03T06:39:39.533Z,10.06
2019-05-03T06:42:19.161Z,10.03
2019-05-03T06:44:47.733Z,9.56
2019-05-03T06:47:21.280Z,10.13
2019-05-03T06:49:51.251Z,9.47
2019-05-03T06:52:27.644Z,9.98
2019-05-03T06:55:00.308Z,10.16
2019-05-03T06:57:31.741Z,10.17
2019-05-03T07:00:35.107Z,10.23
2019-05-03T07:03:29.119Z,10.35
2019-05-03T07:06:34.470Z,10.12
2019-05-03T07:09:18.223Z,10.01
2019-05-03T07:11:48.263Z,9.36
2019-05-03T07:14:17.669Z,10.16
2019-05-03T07:16:48.278Z,10.43
2019-05-03T07:19:18.636Z,10.59
2019-05-03T07:21:48.933Z,10.68
2019-05-03T07:24:19.483Z,10.85
2019-05-03T07:26:49.812Z,10.85
2019-05-03T07:29:22.124Z,11.02
2019-05-03T07:31:55.218Z,11.24
2019-05-03T07:34:27.308Z,11.40
2019-05-03T07:36:58.876Z,11.56
2019-05-03T07:39:31.665Z,11.88
2019-05-03T07:42:02.901Z,12.20
2019-05-03T07:44:34.984Z,12.54
2019-05-03T07:47:09.071Z,12.81
2019-05-03T07:49:41.153Z,12.97
2019-05-03T07:52:12.265Z,13.19
2019-05-03T07:54:46.260Z,13.11
2019-05-03T07:57:29.482Z,13.20
2019-05-03T08:00:17.340Z,13.45
2019-05-03T08:02:47.448Z,13.02
2019-05-03T08:05:18.607Z,13.58
2019-05-03T08:07:49.259Z,13.69
2019-05-03T08:10:19.941Z,13.57
2019-05-03T08:12:50.117Z,13.25
2019-05-03T08:15:20.216Z,12.80
2019-05-03T08:17:55.427Z,12.46
2019-05-03T08:20:26.249Z,12.60
2019-05-03T08:22:59.933Z,13.03
2019-05-03T08:25:30.950Z,13.39
2019-05-03T08:28:01.249Z,13.20
2019-05-03T08:30:44.525Z,13.38
2019-05-03T08:33:24.949Z,13.69
2019-05-03T08:35:55.892Z,13.59
2019-05-03T08:38:26.075Z,13.64
2019-05-03T08:40:58.004Z,14.02
2019-05-03T08:43:28.406Z,13.97
2019-05-03T08:46:04.517Z,14.01
2019-05-03T08:48:35.433Z,14.07
2019-05-03T08:51:06.712Z,13.98
2019-05-03T08:53:36.921Z,13.93
2019-05-03T08:56:07.187Z,14.02
2019-05-03T08:58:37.386Z,14.02
2019-05-03T09:01:08.353Z,13.99
2019-05-03T09:03:41.545Z,13.91
2019-05-03T09:06:12.767Z,13.96
2019-05-03T09:08:42.885Z,13.98
2019-05-03T09:11:15.623Z,14.24
2019-05-03T09:14:01.706Z,14.32
2019-05-03T09:16:31.977Z,14.58
2019-05-03T09:19:02.272Z,14.78
2019-05-03T09:21:34.808Z,14.47
2019-05-03T09:24:09.869Z,14.36
2019-05-03T09:26:41.471Z,13.83
2019-05-03T09:29:12.209Z,13.96
2019-05-03T09:31:44.666Z,13.35
2019-05-03T09:34:16.196Z,14.26
2019-05-03T09:36:47.468Z,14.54
2019-05-03T09:39:17.947Z,14.31
2019-05-03T09:41:48.139Z,14.55
2019-05-03T09:44:18.524Z,14.61
2019-05-03T09:46:49.175Z,14.50
2019-05-03T09:49:19.986Z,14.43
2019-05-03T09:51:50.303Z,14.14
2019-05-03T09:54:28.314Z,14.08
2019-05-03T09:57:02.171Z,13.62
2019-05-03T09:59:32.605Z,13.33
2019-05-03T10:02:04.811Z,13.06
2019-05-03T10:04:36.741Z,13.02
2019-05-03T10:07:08.751Z,13.20
2019-05-03T10:09:39.237Z,13.33
2019-05-03T10:12:15.989Z,13.70
2019-05-03T10:14:45.847Z,13.84
2019-05-03T10:17:35.341Z,13.92
2019-05-03T10:20:07.330Z,13.89
2019-05-03T10:22:38.030Z,13.82
2019-05-03T10:25:09.065Z,14.17
2019-05-03T10:27:46.924Z,14.27
2019-05-03T10:30:28.196Z,14.46
2019-05-03T10:33:25.817Z,14.13
2019-05-03T10:35:55.630Z,14.30
2019-05-03T10:38:25.612Z,13.92
2019-05-03T10:40:57.466Z,13.95
2019-05-03T10:43:27.927Z,14.07
2019-05-03T10:45:59.845Z,13.92
2019-05-03T10:48:35.346Z,13.52
2019-05-03T10:51:08.190Z,13.42
2019-05-03T10:53:42.125Z,13.66
2019-05-03T10:56:23.416Z,13.96
2019-05-03T10:58:55.123Z,13.79
2019-05-03T11:01:35.900Z,13.91
2019-05-03T11:04:07.317Z,13.85
2019-05-03T11:06:37.834Z,13.98
2019-05-03T11:09:08.661Z,14.04
2019-05-03T11:11:39.025Z,14.11
2019-05-03T11:14:09.054Z,14.16
2019-05-03T11:16:39.377Z,14.05
2019-05-03T11:19:09.536Z,14.00
2019-05-03T11:21:40.108Z,14.57
2019-05-03T11:24:11.296Z,14.71
2019-05-03T11:26:45.235Z,15.12
2019-05-03T11:29:15.853Z,15.42
2019-05-03T11:31:59.698Z,15.99
2019-05-03T11:34:35.560Z,16.43
2019-05-03T11:37:31.768Z,16.28
2019-05-03T11:40:01.897Z,15.75
2019-05-03T11:42:32.279Z,15.32
2019-05-03T11:45:06.166Z,15.30
2019-05-03T11:47:36.248Z,14.60
2019-05-03T11:50:07.643Z,15.02
2019-05-03T11:52:39.139Z,14.76
2019-05-03T11:55:11.960Z,14.63
2019-05-03T11:57:44.848Z,14.96
2019-05-03T12:00:18.261Z,15.02
2019-05-03T12:02:56.973Z,15.11
2019-05-03T12:05:29.453Z,15.15
2019-05-03T12:07:59.525Z,14.81
2019-05-03T12:10:46.125Z,15.10
2019-05-03T12:13:15.750Z,15.45
2019-05-03T12:15:46.519Z,15.75
2019-05-03T12:18:17.318Z,15.71
2019-05-03T12:20:48.910Z,14.54
2019-05-03T12:23:20.397Z,14.24
2019-05-03T12:25:51.552Z,14.58
2019-05-03T12:28:22.743Z,14.62
2019-05-03T12:30:57.654Z,14.82
2019-05-03T12:33:28.798Z,14.50
2019-05-03T12:35:59.825Z,14.40
2019-05-03T12:38:30.798Z,14.68
2019-05-03T12:41:02.507Z,14.83
2019-05-03T12:43:42.600Z,14.60
2019-05-03T12:46:16.881Z,14.58
2019-05-03T12:48:47.270Z,14.51
2019-05-03T12:51:17.479Z,14.44
2019-05-03T12:53:48.577Z,14.59
2019-05-03T12:56:24.365Z,14.99
2019-05-03T12:59:05.825Z,14.59
2019-05-03T13:01:55.553Z,15.53
2019-05-03T13:04:28.593Z,15.94
2019-05-03T13:07:08.947Z,15.54
2019-05-03T13:09:39.512Z,15.73
2019-05-03T13:12:14.760Z,15.89
2019-05-03T13:14:50.526Z,15.38
2019-05-03T13:17:37.677Z,15.50
2019-05-03T13:20:17.116Z,15.57
2019-05-03T13:22:51.314Z,15.79
2019-05-03T13:25:21.570Z,15.93
2019-05-03T13:27:51.908Z,15.67
2019-05-03T13:30:24.950Z,15.79
2019-05-03T13:32:55.010Z,15.80
2019-05-03T13:35:25.786Z,15.55
2019-05-03T13:37:56.477Z,15.43
2019-05-03T13:40:27.013Z,15.59
2019-05-03T13:43:03.521Z,15.67
2019-05-03T13:45:31.997Z,15.87
2019-05-03T13:48:04.960Z,15.54
2019-05-03T13:50:35.420Z,16.19
2019-05-03T13:53:09.078Z,15.97
2019-05-03T13:55:39.169Z,16.28
2019-05-03T13:58:09.739Z,16.77
2019-05-03T14:00:45.367Z,16.98
2019-05-03T14:03:16.763Z,16.04
2019-05-03T14:05:47.176Z,16.26
2019-05-03T14:08:18.048Z,16.43
2019-05-03T14:10:50.058Z,16.43
2019-05-03T14:13:26.223Z,15.85
2019-05-03T14:16:00.039Z,16.50
2019-05-03T14:18:45.653Z,16.49
2019-05-03T14:21:27.250Z,16.23
2019-05-03T14:24:15.660Z,16.43
2019-05-03T14:26:48.332Z,16.14
2019-05-03T14:29:19.555Z,15.67
2019-05-03T14:31:58.874Z,15.77
2019-05-03T14:34:30.428Z,15.74
2019-05-03T14:37:07.182Z,15.46
2019-05-03T14:39:38.906Z,14.88
2019-05-03T14:42:12.051Z,14.96
2019-05-03T14:44:42.623Z,15.04
2019-05-03T14:47:16.665Z,15.40
2019-05-03T14:49:49.281Z,15.42
2019-05-03T14:52:17.493Z,15.60
2019-05-03T14:54:50.030Z,15.55
2019-05-03T14:57:38.372Z,15.45
2019-05-03T15:00:31.275Z,15.39
2019-05-03T15:03:07.702Z,15.71
2019-05-03T15:05:43.566Z,15.68
2019-05-03T15:08:15.290Z,15.75
2019-05-03T15:10:45.692Z,15.69
2019-05-03T15:13:16.016Z,15.87
2019-05-03T15:15:46.253Z,15.83
2019-05-03T15:18:16.680Z,15.60
2019-05-03T15:20:46.887Z,15.19
2019-05-03T15:23:17.042Z,15.34
2019-05-03T15:25:47.327Z,15.33
2019-05-03T15:28:17.984Z,15.52
2019-05-03T15:30:48.054Z,15.61
2019-05-03T15:33:21.079Z,15.81
2019-05-03T15:35:51.265Z,15.61
2019-05-03T15:38:21.215Z,15.78
2019-05-03T15:40:51.325Z,15.56
2019-05-03T15:43:28.855Z,15.34
2019-05-03T15:46:06.770Z,15.35
2019-05-03T15:48:41.525Z,15.08
2019-05-03T15:51:12.642Z,15.22
2019-05-03T15:53:44.424Z,14.93
2019-05-03T15:56:14.741Z,14.81
2019-05-03T15:58:46.910Z,14.46
2019-05-03T16:01:17.151Z,14.33
2019-05-03T16:03:47.349Z,14.49
2019-05-03T16:06:18.253Z,14.43
2019-05-03T16:08:48.449Z,14.40
2019-05-03T16:11:19.668Z,14.66
2019-05-03T16:13:49.677Z,14.63
2019-05-03T16:16:19.909Z,14.47
2019-05-03T16:18:49.960Z,14.40
2019-05-03T16:21:21.232Z,14.28
2019-05-03T16:23:55.751Z,14.55
2019-05-03T16:26:26.100Z,14.68
2019-05-03T16:29:12.332Z,14.57
2019-05-03T16:31:42.605Z,14.55
2019-05-03T16:34:12.705Z,14.48
2019-05-03T16:36:42.616Z,14.40
2019-05-03T16:39:12.745Z,14.20
2019-05-03T16:41:44.665Z,14.16
2019-05-03T16:44:14.894Z,14.09
2019-05-03T16:46:46.360Z,14.22
2019-05-03T16:49:18.250Z,14.15
2019-05-03T16:51:48.332Z,14.22
2019-05-03T16:54:18.405Z,13.85
2019-05-03T16:56:48.590Z,13.68
2019-05-03T16:59:18.673Z,13.45
2019-05-03T17:01:48.822Z,13.19
2019-05-03T17:04:45.183Z,13.44
2019-05-03T17:07:31.042Z,13.51
2019-05-03T17:10:07.419Z,13.36
2019-05-03T17:12:38.753Z,13.21
2019-05-03T17:15:10.178Z,13.18
2019-05-03T17:17:40.380Z,13.10
2019-05-03T17:20:10.891Z,13.04
2019-05-03T17:22:41.073Z,13.11
2019-05-03T17:25:11.462Z,13.04
2019-05-03T17:27:41.658Z,13.05
2019-05-03T17:30:12.211Z,12.92
2019-05-03T17:32:42.221Z,12.91
2019-05-03T17:35:14.378Z,13.04
2019-05-03T17:37:45.172Z,13.16
2019-05-03T17:40:46.701Z,13.32
2019-05-03T17:43:31.706Z,13.28
2019-05-03T17:46:01.996Z,13.39
2019-05-03T17:48:32.180Z,13.60
2019-05-03T17:51:05.661Z,13.70
2019-05-03T17:53:55.061Z,13.66
2019-05-03T17:56:34.954Z,13.68
2019-05-03T17:59:08.718Z,13.59
2019-05-03T18:01:56.199Z,13.31
2019-05-03T18:04:37.765Z,13.33
2019-05-03T18:07:36.576Z,13.30
2019-05-03T18:10:07.876Z,13.38
2019-05-03T18:12:37.874Z,13.19
2019-05-03T18:15:08.498Z,13.20
2019-05-03T18:17:38.579Z,12.91
2019-05-03T18:20:08.810Z,12.82
2019-05-03T18:22:39.250Z,12.85
2019-05-03T18:25:09.516Z,12.69
2019-05-03T18:27:40.103Z,12.54
2019-05-03T18:30:10.810Z,12.42
2019-05-03T18:32:41.251Z,12.31
2019-05-03T18:35:11.504Z,12.04
2019-05-03T18:37:42.057Z,12.00
2019-05-03T18:40:13.032Z,11.92
2019-05-03T18:42:47.772Z,11.70
2019-05-03T18:45:23.268Z,11.67
2019-05-03T18:47:54.445Z,11.70
2019-05-03T18:50:24.621Z,11.67
2019-05-03T18:52:57.831Z,11.63
2019-05-03T18:55:28.706Z,11.55
2019-05-03T18:57:58.743Z,11.48
2019-05-03T19:00:31.942Z,11.49
2019-05-03T19:03:02.009Z,11.46
2019-05-03T19:05:34.940Z,11.43
2019-05-03T19:08:15.438Z,11.42
2019-05-03T19:10:52.286Z,11.36
2019-05-03T19:13:30.224Z,11.37
2019-05-03T19:16:06.414Z,11.34
2019-05-03T19:18:38.106Z,11.37
2019-05-03T19:21:08.278Z,11.33
2019-05-03T19:23:39.455Z,11.38
2019-05-03T19:26:09.574Z,11.28
2019-05-03T19:28:39.489Z,11.35
2019-05-03T19:31:10.081Z,11.33
2019-05-03T19:33:40.170Z,11.35
2019-05-03T19:36:10.264Z,11.38
2019-05-03T19:38:40.664Z,11.31
2019-05-03T19:41:11.089Z,11.24
2019-05-03T19:43:41.176Z,11.22
2019-05-03T19:46:11.753Z,11.19
2019-05-03T19:48:41.955Z,11.17
2019-05-03T19:51:14.045Z,11.14
2019-05-03T19:54:02.976Z,11.11
2019-05-03T19:59:06.827Z,11.09
2019-05-03T20:01:49.347Z,11.07
2019-05-03T20:04:37.676Z,11.04
2019-05-03T20:07:25.427Z,11.06
2019-05-03T20:09:56.004Z,11.01
2019-05-03T20:12:26.390Z,11.02
2019-05-03T20:14:56.485Z,10.96
2019-05-03T20:17:28.619Z,10.94
2019-05-03T20:20:00.556Z,10.85
2019-05-03T20:22:30.892Z,10.70
2019-05-03T20:25:01.208Z,10.56
2019-05-03T20:27:31.470Z,10.39
2019-05-03T20:30:01.613Z,10.34
2019-05-03T20:32:31.845Z,10.22
2019-05-03T20:35:12.902Z,10.15
2019-05-03T20:37:34.973Z,10.07
2019-05-03T20:40:09.260Z,10.01
2019-05-03T20:43:04.943Z,9.98
2019-05-03T20:46:10.662Z,9.95
2019-05-03T20:48:44.807Z,9.96
2019-05-03T20:51:19.961Z,9.97
2019-05-03T20:53:49.522Z,10.00
2019-05-03T20:56:20.309Z,9.95
2019-05-03T20:58:50.529Z,9.84
2019-05-03T21:01:21.118Z,9.84
2019-05-03T21:03:51.356Z,9.76
2019-05-03T21:06:33.090Z,9.77
2019-05-03T21:08:56.611Z,9.78
2019-05-03T21:11:26.875Z,9.81
2019-05-03T21:13:57.337Z,9.77
2019-05-03T21:16:34.928Z,9.75
2019-05-03T21:19:27.517Z,9.76
2019-05-03T21:22:20.599Z,9.79
2019-05-03T21:25:10.210Z,9.80
2019-05-03T21:27:40.510Z,9.78
2019-05-03T21:30:11.025Z,9.56
2019-05-03T21:32:41.522Z,9.78
2019-05-03T21:35:14.810Z,9.78
2019-05-03T21:37:45.979Z,9.76
2019-05-03T21:40:16.653Z,9.77
2019-05-03T21:42:47.159Z,9.81
2019-05-03T21:45:24.702Z,9.76
2019-05-03T21:48:10.280Z,9.74
2019-05-03T21:50:40.571Z,9.80
2019-05-03T21:53:11.281Z,9.80
2019-05-03T21:55:44.577Z,9.79
2019-05-03T21:58:16.549Z,9.78
2019-05-03T22:00:57.839Z,9.17
2019-05-03T22:03:28.129Z,9.67
2019-05-03T22:06:01.891Z,9.71
2019-05-03T22:08:34.944Z,9.72
2019-05-03T22:11:08.701Z,9.62
2019-05-03T22:13:38.895Z,9.62
2019-05-03T22:16:15.513Z,9.59
2019-05-03T22:18:46.007Z,9.54
2019-05-03T22:21:26.899Z,9.54
2019-05-03T22:24:31.639Z,9.55
2019-05-03T22:27:09.047Z,9.47
2019-05-03T22:29:39.758Z,9.42
2019-05-03T22:32:09.967Z,9.44
2019-05-03T22:34:40.434Z,9.42
2019-05-03T22:37:11.412Z,9.40
2019-05-03T22:39:41.854Z,9.31
2019-05-03T22:42:14.813Z,9.31
2019-05-03T22:44:45.524Z,9.30
2019-05-03T22:47:15.689Z,9.40
2019-05-03T22:49:45.799Z,9.40
2019-05-03T22:52:16.341Z,9.42
2019-05-03T22:54:46.900Z,9.37
2019-05-03T22:57:17.228Z,9.44
2019-05-03T22:59:47.912Z,9.43
2019-05-03T23:02:19.209Z,9.55
2019-05-03T23:04:49.273Z,9.61
2019-05-03T23:07:20.081Z,9.60
2019-05-03T23:09:51.780Z,9.64
2019-05-03T23:12:25.060Z,9.64
2019-05-03T23:14:55.335Z,9.62
2019-05-03T23:17:25.647Z,9.63
2019-05-03T23:20:01.184Z,9.67
2019-05-03T23:22:32.555Z,9.67
2019-05-03T23:25:05.224Z,9.71
2019-05-03T23:27:37.114Z,9.71
2019-05-03T23:30:09.160Z,9.73
2019-05-03T23:32:39.804Z,9.66
2019-05-03T23:35:10.300Z,9.71
2019-05-03T23:37:40.647Z,9.73
2019-05-03T23:40:11.062Z,9.73
2019-05-03T23:42:43.722Z,9.79
2019-05-03T23:45:14.889Z,9.80
2019-05-03T23:47:47.201Z,9.88
2019-05-03T23:50:19.871Z,9.89
2019-05-03T23:52:49.790Z,9.90
2019-05-03T23:55:37.332Z,9.87
2019-05-03T23:58:07.619Z,9.81
